Terminal Aerodrome Forecast
Issued by NWS

Home | Current Version | Previous Version | Text Only | Print | Product List | Glossary On
Versions: 1 2 3 4 5 6 7 8 9 10 11 12 13 14 15 16 17
000
FTUS44 KCRP 211100
TAFALI
TAF
KALI 211130Z 2112/2212 01004KT 6SM BR SCT012
      TEMPO 2112/2116 OVC012
     FM211600 06005KT P6SM OVC035
     FM220200 03003KT 6SM BR OVC015
     FM220700 VRB03KT 3SM BR OVC004=

USA.gov is the U.S. government's official web portal to all federal, state and local government web resources and services.